Pagina principale
METAR-TAF:

METAR-TAF

Aeroporti :

Aeroporto di Osijek-Klisa

Osijek, Croazia

latitudine: 45-27N, longitudine: 018-48E, altezza: 88 m

Osservazione

Il bollettino è stato emesso 12 minuti fa, alle 05:00 UTC
Vento 12 kt da ovest/nord-ovest
Temperature 4°C
Umidità 75%
Pressione 1016 hPa
Visibilità 10 km o più
nessuna nube inferiore a 1500 m e nessun cumulonembo

METAR: LDOS 300500Z 30012KT CAVOK 04/00 Q1016

Ora: 07:12 (05:12 UTC)

Previsione

Il bollettino è stato emesso 5 ore e 47 minuti fa, alle 23:25 UTC
Previsione valida dal 30 alle 00 UTC al 31 alle 00 UTC
Vento 14 kt da nord-ovest
Visibilità 10 km o più
nessuna nube inferiore a 1500 m e nessun cumulonembo
Evoluzione graduale
dal 30 alle 18 UTC al 30 alle 20 UTC
Vento 6 kt da nord-ovest

TAF: LDOS 292325Z 3000/3100 32014KT CAVOK TX10/3013Z TN04/3023Z BECMG 3018/3020 32006KT

Osservazioni e previsioni meteorologiche di più di 4000 aeroporti (messaggi METAR e TAF).

Le stazioni disponibili sono rappresentate dai dischi gialli e rossi sulla carta.

Puntare il mouse per vedere il nome della stazione.

Clicca sopra per visualizzare le osservazioni e previsioni meteorologiche.

Per cambiare la mappa : fare clic sui pulsanti verdi con una croce nera per ingrandire, il pulsante verde con un trattino per diminuire, o sulla freccia verde per le mappe adiacenti.


METAR-TAF: